Latest Weather Observations for Woolshed

IDQ60801

Issued at 9:35 am EST Thursday 24 April 2014 (issued every 30 minutes, with the page automatically refreshed every 10 minutes)

About weather observations | Map of weather stations | Latest weather observations for QLD | Other Formats
Station Details ID: 033307 Name: WOOLSHED Lat: -19.42 Lon: 146.54 Height: 556.04 m
Data from the previous 72 hours. | See also: Recent months at Woolshed
Date/Time
EST
Temp
°C
App
Temp
°C
Dew
Point
Rel
Hum
%
Delta-T
°C
Wind Press
QNH
hPa
Press
MSL
hPa
Rain
since 9 am
mm
Dir
 
Spd
km/h
Gust
km/h
Spd
kts
Gust
kts
24/09:30am 21.0 23.9 20.7 98 0.2 E 6 13 3 7 1017.0 - 0.0
24/09:00am 20.6 23.5 20.6 100 0.0 E 6 9 3 5 1016.6 1013.6 2.2
24/08:30am 20.0 22.6 20.0 100 0.0 ESE 6 9 3 5 1016.8 - 2.2
24/08:00am 19.9 22.2 19.9 100 0.0 ESE 7 13 4 7 1016.1 1013.2 2.2
24/07:30am 19.8 22.3 19.8 100 0.0 ESE 6 11 3 6 1015.9 - 2.2
24/07:00am 19.9 22.4 19.9 100 0.0 ESE 6 11 3 6 1015.6 1012.7 2.2
24/06:30am 19.8 22.6 19.6 99 0.1 ESE 4 7 2 4 1015.5 - 2.2
24/06:00am 19.8 22.2 19.6 99 0.1 SE 6 9 3 5 1015.2 1012.3 2.2
24/05:30am 19.8 22.2 19.6 99 0.1 SSE 6 13 3 7 1015.0 - 2.2
24/05:00am 19.8 22.0 19.6 99 0.1 SSE 7 15 4 8 1015.0 1012.0 2.2
24/04:30am 19.9 22.1 19.6 98 0.2 SE 7 13 4 7 1014.7 - 2.2
24/04:00am 19.9 21.6 19.4 97 0.3 SSE 9 17 5 9 1014.8 1011.8 2.0
24/03:30am 19.9 22.0 19.4 97 0.3 SSE 7 17 4 9 1014.9 - 2.0
24/03:00am 19.8 21.9 19.3 97 0.3 S 7 13 4 7 1014.8 1011.8 2.0
24/02:30am 19.7 21.9 19.2 97 0.3 SSE 6 15 3 8 1014.9 - 2.0
24/02:00am 19.8 22.0 19.3 97 0.3 SSE 6 11 3 6 1015.2 1012.3 2.0
24/01:30am 19.8 21.5 19.3 97 0.3 SE 9 17 5 9 1015.1 - 2.0
24/01:00am 19.5 21.6 19.0 97 0.3 SSE 6 13 3 7 1015.7 1012.8 2.0
24/12:30am 19.5 22.1 19.2 98 0.2 SSE 4 7 2 4 1016.3 - 2.0
24/12:00am 19.6 21.9 19.4 99 0.1 S 6 9 3 5 1016.4 1013.4 2.0
 
Date/Time
EST
Temp
°C
App
Temp
°C
Dew
Point
Rel
Hum
%
Delta-T
°C
Wind Press
QNH
hPa
Press
MSL
hPa
Rain
since 9 am
mm
Dir
 
Spd
km/h
Gust
km/h
Spd
kts
Gust
kts
23/11:30pm 19.6 21.9 19.4 99 0.1 SSW 6 9 3 5 1017.2 - 1.4
23/11:00pm 19.8 22.1 19.5 98 0.2 SSW 6 11 3 6 1017.3 1014.4 0.8
23/10:30pm 19.9 22.0 19.4 97 0.3 SSW 7 13 4 7 1017.4 - 0.8
23/10:00pm 20.1 22.2 19.4 96 0.5 S 7 13 4 7 1017.4 1014.5 0.8
23/09:30pm 20.1 22.4 19.4 96 0.5 SSE 6 13 3 7 1017.4 - 0.8
23/09:00pm 20.3 22.9 20.0 98 0.2 S 6 9 3 5 1017.4 1014.5 0.8
23/08:30pm 20.4 23.4 20.1 98 0.2 S 4 7 2 4 1017.1 - 0.6
23/08:00pm 20.4 22.9 19.9 97 0.3 S 6 9 3 5 1017.0 1014.1 0.2
23/07:30pm 20.4 22.4 19.9 97 0.3 S 9 17 5 9 1016.8 - 0.2
23/07:00pm 20.5 22.4 19.8 96 0.5 SSW 9 15 5 8 1016.6 1013.6 0.2
23/06:30pm 20.6 22.9 19.8 95 0.5 S 7 15 4 8 1016.3 - 0.2
23/06:00pm 20.9 22.9 19.9 94 0.7 SSW 9 19 5 10 1015.6 1012.7 0.2
23/05:30pm 22.1 25.8 20.7 92 0.9 SSW 2 6 1 3 1015.4 - 0.2
23/05:00pm 22.1 25.3 20.6 91 1.0 SSW 4 7 2 4 1015.0 1012.0 0.2
23/04:30pm 22.1 25.4 20.7 92 0.9 S 4 7 2 4 1014.9 - 0.2
23/04:00pm 22.3 24.9 20.0 87 1.5 SSE 6 9 3 5 1014.6 1011.6 0.0
23/03:30pm 22.8 25.2 20.1 85 1.8 SE 7 11 4 6 1014.6 - 0.0
23/03:00pm 22.6 24.9 19.9 85 1.8 ESE 7 15 4 8 1014.7 1011.7 0.0
23/02:30pm 23.7 26.3 20.4 82 2.2 SE 7 19 4 10 1014.9 - 0.0
23/02:00pm 23.9 25.8 19.8 78 2.7 SE 9 15 5 8 1015.4 1012.5 0.0
23/01:30pm 23.4 24.8 19.5 79 2.6 ESE 11 19 6 10 1015.6 - 0.0
23/01:00pm 23.9 25.9 20.8 83 2.1 ESE 11 20 6 11 1015.8 1012.9 0.0
23/12:30pm 23.6 25.6 19.9 80 2.4 ESE 9 20 5 11 1016.6 - 0.0
23/12:00pm 23.1 25.5 20.1 83 2.0 SSE 7 13 4 7 1017.2 1014.3 0.0
23/11:30am 22.6 25.1 20.3 87 1.5 SE 7 11 4 6 1017.5 - 0.0
23/11:00am 22.7 25.5 20.8 89 1.3 SSE 7 13 4 7 1017.8 1014.9 0.0
23/10:30am 21.9 23.4 19.8 88 1.4 SE 11 19 6 10 1018.0 - 0.0
23/10:00am 21.5 23.5 20.0 91 1.0 SE 9 19 5 10 1017.9 1015.0 0.0
23/09:30am 20.9 22.7 19.6 92 0.8 ESE 9 13 5 7 1018.0 - 0.0
23/09:00am 20.8 23.2 20.0 95 0.5 SE 7 13 4 7 1017.9 1015.0 0.0
23/08:30am 20.5 22.6 19.3 93 0.8 SE 7 15 4 8 1017.9 - 0.0
23/08:00am 20.3 22.5 19.3 94 0.6 SSE 6 13 3 7 1017.7 1014.8 0.0
23/07:30am 20.0 22.1 19.0 94 0.6 SSE 6 11 3 6 1017.5 - 0.0
23/07:00am 19.8 21.8 18.8 94 0.6 SE 6 13 3 7 1017.0 1014.1 0.0
23/06:30am 19.6 22.0 18.8 95 0.5 SSE 4 9 2 5 1016.8 - 0.0
23/06:00am 19.5 21.9 18.8 96 0.4 SSE 4 7 2 4 1016.8 1013.9 0.0
23/05:30am 19.4 21.8 18.7 96 0.4 SE 4 7 2 4 1016.4 - 0.0
23/05:00am 19.4 21.4 18.7 96 0.4 SE 6 11 3 6 1016.1 1013.2 0.0
23/04:30am 19.3 21.6 18.6 96 0.4 SE 4 6 2 3 1016.4 - 0.0
23/04:00am 19.4 21.1 18.6 95 0.5 SE 7 15 4 8 1016.1 1013.2 0.0
23/03:30am 19.5 21.2 18.5 94 0.6 SE 7 13 4 7 1016.6 - 0.0
23/03:00am 19.3 21.0 18.0 92 0.8 SE 6 11 3 6 1016.7 1013.8 0.0
23/02:30am 19.3 21.4 18.0 92 0.8 SE 4 9 2 5 1016.9 - 0.0
23/02:00am 19.3 21.4 18.0 92 0.8 SE 4 9 2 5 1017.3 1014.4 0.0
23/01:30am 19.2 20.8 18.2 94 0.6 SE 7 11 4 6 1017.4 - 0.0
23/01:00am 19.0 21.2 18.3 96 0.4 ESE 4 7 2 4 1017.7 1014.8 0.0
23/12:30am 18.6 21.3 17.8 95 0.5 CALM 0 0 0 0 1018.3 - 0.0
23/12:00am 18.9 21.6 17.7 93 0.8 CALM 0 0 0 0 1018.3 1015.4 0.0
 
Date/Time
EST
Temp
°C
App
Temp
°C
Dew
Point
Rel
Hum
%
Delta-T
°C
Wind Press
QNH
hPa
Press
MSL
hPa
Rain
since 9 am
mm
Dir
 
Spd
km/h
Gust
km/h
Spd
kts
Gust
kts
22/11:30pm 19.3 22.0 17.8 91 0.9 CALM 0 2 0 1 1018.4 - 0.0
22/11:00pm 19.5 21.8 17.8 90 1.1 NE 2 6 1 3 1018.3 1015.4 0.0
22/10:30pm 19.7 21.3 17.8 89 1.2 NE 6 7 3 4 1018.4 - 0.0
22/10:00pm 19.2 22.1 18.2 94 0.6 CALM 0 2 0 1 1018.6 1015.7 0.0
22/09:30pm 19.4 22.4 18.4 94 0.6 CALM 0 0 0 0 1019.0 - 0.0
22/09:00pm 19.5 22.5 18.5 94 0.6 CALM 0 0 0 0 1018.9 1016.0 0.0
22/08:30pm 19.5 21.7 18.3 93 0.8 NE 4 6 2 3 1018.8 - 0.0
22/08:00pm 19.6 22.5 18.3 92 0.8 CALM 0 0 0 0 1018.7 1015.8 0.0
22/07:30pm 19.6 22.1 18.1 91 0.9 NNE 2 4 1 2 1018.5 - 0.0
22/07:00pm 19.6 22.5 18.3 92 0.8 CALM 0 0 0 0 1018.2 1015.2 0.0
22/06:30pm 19.8 22.6 17.9 89 1.2 CALM 0 0 0 0 1018.0 - 0.0
22/06:00pm 20.2 22.9 17.8 86 1.5 CALM 0 0 0 0 1018.0 1015.1 0.0
22/05:30pm 20.7 23.5 17.9 84 1.8 CALM 0 2 0 1 1018.0 - 0.0
22/05:00pm 20.9 22.8 17.7 82 2.0 NE 4 7 2 4 1017.8 1014.9 0.0
22/04:30pm 21.3 22.8 17.7 80 2.3 NNE 6 9 3 5 1017.6 - 0.0
22/04:00pm 21.9 23.4 17.5 76 2.8 E 6 9 3 5 1017.4 1014.5 0.0
22/03:30pm 21.5 23.0 17.7 79 2.4 E 6 11 3 6 1017.4 - 0.0
22/03:00pm 21.7 23.3 18.3 81 2.2 NE 7 11 4 6 1017.3 1014.4 0.0
22/02:30pm 21.9 23.0 18.1 79 2.4 NNE 9 15 5 8 1017.5 - 0.0
22/02:00pm 22.2 23.5 17.6 75 2.9 NNE 7 13 4 7 1017.7 1014.8 0.0
22/01:30pm 22.7 23.6 17.6 73 3.2 NE 9 15 5 8 1017.9 - 0.0
22/01:00pm 21.2 22.3 18.0 82 2.0 NE 9 17 5 9 1018.5 1015.6 0.0
22/12:30pm 21.6 21.9 18.0 80 2.3 NNE 13 19 7 10 1018.7 - 0.0
22/12:00pm 22.1 23.2 18.1 78 2.5 ENE 9 15 5 8 1019.0 1016.1 0.0
22/11:30am 22.0 23.7 18.6 81 2.2 NE 7 15 4 8 1019.3 - 0.0
22/11:00am 21.5 22.4 17.5 78 2.5 NE 9 20 5 11 1019.7 1016.8 0.0
22/10:30am 21.4 22.2 17.2 77 2.6 ENE 9 17 5 9 1020.1 - 0.0
22/10:00am 21.3 22.1 17.3 78 2.5 E 9 15 5 8 1020.1 1017.2 0.0
22/09:30am 20.9 22.6 18.1 84 1.8 E 6 13 3 7 1020.5 - 0.0
22/09:00am 20.4 21.7 17.6 84 1.8 E 7 11 4 6 1020.3 1017.4 0.0
22/08:30am 20.0 21.3 17.2 84 1.7 E 6 13 3 7 1020.1 - 0.0
22/08:00am 19.7 21.1 17.3 86 1.5 E 6 9 3 5 1020.1 1017.2 0.0
22/07:30am 19.1 20.3 16.9 87 1.4 E 6 9 3 5 1019.7 - 0.0
22/07:00am 18.9 20.1 16.9 88 1.2 E 6 11 3 6 1019.4 1016.5 0.0
22/06:30am 19.1 20.7 16.9 87 1.4 E 4 9 2 5 1019.1 - 0.0
22/06:00am 19.3 20.0 17.1 87 1.4 ENE 9 19 5 10 1018.7 1015.8 0.0
22/05:30am 19.4 20.5 17.2 87 1.4 ENE 7 13 4 7 1018.4 - 0.0
22/05:00am 19.5 20.1 16.9 85 1.6 ENE 9 15 5 8 1018.3 1015.4 0.0
22/04:30am 19.6 20.8 16.8 84 1.7 ENE 6 11 3 6 1018.5 - 0.0
22/04:00am 19.7 20.6 16.7 83 1.9 ENE 7 11 4 6 1018.2 1015.2 0.0
22/03:30am 19.6 20.8 16.8 84 1.7 ENE 6 13 3 7 1018.3 - 0.0
22/03:00am 19.4 20.0 16.8 85 1.6 E 9 19 5 10 1018.3 1015.4 0.0
22/02:30am 19.8 20.4 16.8 83 1.9 ENE 9 15 5 8 1018.6 - 0.0
22/02:00am 19.5 20.7 17.3 87 1.4 ENE 7 11 4 6 1018.8 1015.9 0.0
22/01:30am 19.1 20.6 17.6 91 0.9 E 6 9 3 5 1018.9 - 0.0
22/01:00am 19.4 20.9 17.7 90 1.1 E 6 9 3 5 1019.2 1016.3 0.0
22/12:30am 19.5 21.0 17.5 88 1.3 E 6 9 3 5 1019.3 - 0.0
22/12:00am 20.1 21.5 17.3 84 1.7 ENE 6 11 3 6 1019.6 1016.7 0.0
 
Date/Time
EST
Temp
°C
App
Temp
°C
Dew
Point
Rel
Hum
%
Delta-T
°C
Wind Press
QNH
hPa
Press
MSL
hPa
Rain
since 9 am
mm
Dir
 
Spd
km/h
Gust
km/h
Spd
kts
Gust
kts
21/11:30pm 20.3 21.5 17.3 83 1.9 E 7 17 4 9 1019.7 - 0.0
21/11:00pm 20.4 21.2 17.4 83 1.9 ENE 9 15 5 8 1019.9 1017.1 0.0
21/10:30pm 20.5 21.8 17.5 83 1.9 NE 7 15 4 8 1020.2 - 0.0
21/10:00pm 20.6 21.9 17.2 81 2.1 ENE 6 15 3 8 1020.2 1017.3 0.0
21/09:30pm 20.6 21.6 16.8 79 2.4 ENE 7 17 4 9 1020.1 - 0.0
21/09:00pm 20.5 21.7 16.9 80 2.2 ENE 6 11 3 6 1019.9 1017.1 0.0
21/08:30pm 20.5 22.1 16.9 80 2.2 ENE 4 9 2 5 1020.1 - 0.0
21/08:00pm 20.6 21.9 17.0 80 2.2 ENE 6 13 3 7 1019.8 1016.9 0.0
21/07:30pm 20.7 21.4 17.1 80 2.3 NE 9 15 5 8 1019.6 - 0.0
21/07:00pm 20.8 21.9 17.2 80 2.3 NE 7 13 4 7 1019.4 1016.5 0.0
21/06:30pm 20.8 22.4 17.8 83 1.9 ENE 6 11 3 6 1019.1 - 0.0
21/06:00pm 21.0 22.4 17.8 82 2.0 NE 7 11 4 6 1018.9 1016.0 0.0
21/05:30pm 21.2 22.7 18.0 82 2.0 NE 7 11 4 6 1018.7 - 0.0
21/05:00pm 21.6 23.3 18.4 82 2.0 NE 7 15 4 8 1018.4 1015.5 0.0
21/04:30pm 22.2 23.3 18.0 77 2.7 NE 9 17 5 9 1017.9 - 0.0
21/04:00pm 22.5 24.1 18.3 77 2.7 NE 7 15 4 8 1017.7 1014.8 0.0
21/03:30pm 22.4 23.8 17.8 75 2.9 E 7 15 4 8 1017.5 - 0.0
21/03:00pm 22.5 23.1 17.8 75 3.0 NE 11 20 6 11 1017.5 1014.6 0.0
21/02:30pm 22.3 23.1 18.1 77 2.7 NE 11 20 6 11 1017.6 - 0.0
21/02:00pm 22.7 23.9 18.3 76 2.8 NE 9 17 5 9 1017.8 1014.9 0.0
21/01:30pm 23.4 24.3 17.6 70 3.7 NNE 9 13 5 7 1018.0 - 0.0
21/01:00pm 23.4 24.4 16.9 67 4.1 NE 7 15 4 8 1018.5 1015.6 0.0
21/12:30pm 23.6 24.1 16.6 65 4.4 NNE 9 15 5 8 1018.7 - 0.0
21/12:00pm 24.0 23.9 16.0 61 5.0 NE 11 20 6 11 1018.9 1016.0 0.0
21/11:30am 22.4 23.3 16.7 70 3.6 ENE 7 15 4 8 1019.2 - 0.0
21/11:00am 23.3 24.3 17.7 71 3.6 E 9 19 5 10 1019.7 1016.8 0.0
21/10:30am 22.4 23.0 16.7 70 3.6 E 9 19 5 10 1019.9 - 0.0
21/10:00am 22.1 22.8 17.0 73 3.2 E 9 20 5 11 1019.9 1017.1 0.0

Other Formats:

Comma delimited format used in spreadsheet applications
http://www.bom.gov.au/fwo/IDQ60801/IDQ60801.95293.axf

JavaScript Object Notation format (JSON) in row-major order
http://www.bom.gov.au/fwo/IDQ60801/IDQ60801.95293.json